Terminal Aerodrome Forecast
Issued by NWS

Home | Current Version | Previous Version | Text Only | Print | Product List | Glossary On
Versions: 1 2 3 4 5 6 7 8 9 10 11 12 13 14 15 16 17 18 19 20 21 22 23
618
FTUS41 KBTV 191142
TAFPBG
TAF
KPBG 191142Z 1912/2012 16007KT P6SM SCT100
     FM200200 00000KT P6SM FEW120
     FM200800 33003KT 5SM BR SCT120=

USA.gov is the U.S. government's official web portal to all federal, state and local government web resources and services.